Aeroporto :
LOGIN :

Iscrizione | Disclaimer

   EN    FR    IT 

 










Sommario :    VFR   VFR Marginale   IFR   IFR Intensivo   IFR Molto Intensivo
Visibilità : 
Base nubi : 
>= 8 km
>= 3000ft
5 / 8 km
1000 / 3000 ft
1500m / 5 km
500 / 1000 ft
800 / 1500m
200 / 500 ft
< 800m
< 200 ft
Simboli :   Temporali  Nebbia  Neve Forte  Precipitazioni Forti  Vento > 20 kt
SIGMETs :   Varie  Temporali  Ghiacco  Turbolenza  Onda orograficha  Ceneri Vulcaniche






- Altitudine del aeroporto : 47 ft
- Codice IATA : OUL


EFOU - Oulu

ULTIMO METAR :
  • 070150Z AUTO 19008KT 9999 OVC007 01/M00 Q0983

METARs OBSOLETI :
  • 070120Z AUTO 21008KT 9999 OVC007 00/00 Q0983
  • 070050Z AUTO 20006KT 170V240 9999 OVC006 00/M00 Q0983
  • 070020Z AUTO 20006KT 9999 OVC005 M00/M00 Q0983
  • 062350Z AUTO 20006KT 170V230 9999 OVC005 M00/M00 Q0983
  • 062320Z AUTO 19007KT 170V230 9999 OVC005 M01/M01 Q0983
  • 062250Z AUTO 19007KT 9999 OVC004 M01/M01 Q0983

TAF TAF EFOU
Valido dal 07 a 00 ore il 08 a 00 ore UTC


062325Z 0700/0724 19006KT 9000 OVC004
TEMPO 0700/0712 FEW002
TEMPO 0712/0724 OVC006



MetMap, La meteo Aeronautica in un colpo d'occhio ! - Copyright ORBIFLY Dicembre 2007 - Disclaimer

ORBIFLY MET'MAP TEAM :

Programmazione e sviluppo : Alexandra Zaïnal
Concezione : Baudouin d'Aumeries
Aiuto per la programmazione : Marc-Olivier Méhu
Supporto tecnico e logistico : Manuel Goepfert
Aiuto per la traduzione : Arnaldo La Scala

Contatto : metmap@orbifly.com




FONTI E CREDITI :

   NOAA